Kinrikimaru No.5 — JL6558 — position and weather

sailwx.info

Track history (hours):
 
Tides and Currents Weather Stations Pressure Air Temp Water Temp Dewpoint Dewpoint Depression Visibility Wind Speed Wind Dir Waves Ship Positions

Kinrikimaru No.5

Last reported at 2017-Oct-12 09:28 UTC. Time now 2017-Oct-22 17:22 UTC.
Position N 34°50' E 139°48'.
Warning: this ship's position is 10 days out of date.

Length 75 m; draft 3.8 m.

Type: Cargo ship. MMSI: 431501278.

Date/timePositionNaut miles runAvg speedWind from/ knotsBaromVisibWave heightAir tempDewpointWater temp
2017-Oct-12 09:28N 34°50' E 139°48'  
2017-Oct-05 10:21N 34°55' E 139°45'412.3
2017-Oct-05 10:01N 34°59' E 139°43'611.2
2017-Oct-05 09:31N 35°04' E 139°44'510.7
2017-Oct-05 09:01N 35°09' E 139°45'611.5
2017-Oct-05 08:30N 35°15' E 139°46'611.4
2017-Oct-05 08:01N 35°20' E 139°42'611.1
2017-Oct-05 07:31N 35°25' E 139°44'610.8
2017-Oct-05 07:00N 35°30' E 139°48'3 5.3
2017-Oct-05 06:31N 35°31' E 139°45'0 0.0
2017-Oct-05 06:00N 35°31' E 139°45'0 0.0
2017-Oct-05 05:21N 35°31' E 139°45'0 0.0
2017-Oct-05 02:42N 35°31' E 139°45'0 0.0
2017-Oct-05 02:30N 35°31' E 139°45'0 0.0
2017-Oct-05 02:00N 35°31' E 139°45'0 0.0
2017-Oct-05 01:30N 35°31' E 139°45'0 0.0
2017-Oct-05 01:00N 35°31' E 139°45'0 0.0
2017-Oct-05 00:30N 35°31' E 139°45'0 0.0
2017-Oct-04 23:54N 35°31' E 139°45'0 0.7
2017-Oct-04 23:30N 35°31' E 139°45'4 7.9
2017-Oct-04 23:00N 35°27' E 139°47'511.1
2017-Oct-04 22:31N 35°22' E 139°45'5 9.8
2017-Oct-04 22:00N 35°17' E 139°45'510.2
2017-Oct-04 21:30N 35°12' E 139°47'612.0
2017-Oct-04 21:00N 35°06' E 139°46'612.2
2017-Oct-04 20:30N 35°00' E 139°44'  
Track history (hours):
 
Tides and Currents Weather Stations Pressure Air Temp Water Temp Dewpoint Dewpoint Depression Visibility Wind Speed Wind Dir Waves Ship Positions

Kinrikimaru No.5

Last reported at 2017-Oct-12 09:28 UTC. Time now 2017-Oct-22 17:22 UTC.
Position N 34°50' E 139°48'.
Warning: this ship's position is 10 days out of date.

Length 75 m; draft 3.8 m.

Type: Cargo ship. MMSI: 431501278.

Date/timePositionNaut miles runAvg speedWind from/ knotsBaromVisibWave heightAir tempDewpointWater temp
2017-Oct-12 09:28N 34°50' E 139°48'  
2017-Oct-05 10:21N 34°55' E 139°45'412.3
2017-Oct-05 10:01N 34°59' E 139°43'611.2
2017-Oct-05 09:31N 35°04' E 139°44'510.7
2017-Oct-05 09:01N 35°09' E 139°45'611.5
2017-Oct-05 08:30N 35°15' E 139°46'611.4
2017-Oct-05 08:01N 35°20' E 139°42'611.1
2017-Oct-05 07:31N 35°25' E 139°44'610.8
2017-Oct-05 07:00N 35°30' E 139°48'3 5.3
2017-Oct-05 06:31N 35°31' E 139°45'0 0.0
2017-Oct-05 06:00N 35°31' E 139°45'0 0.0
2017-Oct-05 05:21N 35°31' E 139°45'0 0.0
2017-Oct-05 02:42N 35°31' E 139°45'0 0.0
2017-Oct-05 02:30N 35°31' E 139°45'0 0.0
2017-Oct-05 02:00N 35°31' E 139°45'0 0.0
2017-Oct-05 01:30N 35°31' E 139°45'0 0.0
2017-Oct-05 01:00N 35°31' E 139°45'0 0.0
2017-Oct-05 00:30N 35°31' E 139°45'0 0.0
2017-Oct-04 23:54N 35°31' E 139°45'0 0.7
2017-Oct-04 23:30N 35°31' E 139°45'4 7.9
2017-Oct-04 23:00N 35°27' E 139°47'511.1
2017-Oct-04 22:31N 35°22' E 139°45'5 9.8
2017-Oct-04 22:00N 35°17' E 139°45'510.2
2017-Oct-04 21:30N 35°12' E 139°47'612.0
2017-Oct-04 21:00N 35°06' E 139°46'612.2
2017-Oct-04 20:30N 35°00' E 139°44'  

Dump ship's entire track history